Urb Batey, Puerto Rico
Current Conditions -  °F | °C
As of 7:53 AM on Sunday 25 Jan 2015 (Local Time) from TJNR Reporting Station
Scattered Clouds Scattered Clouds  
Wind Chill: 76°   Ceiling: Unl
Heat Index: 76°   Visibility: 10mi
Dew Point: 71°   Wind: 0mph
Humidity: 85%   Direction: NA
Pressure: 30.06"   Gusts: NA
Location:  18.3304°N, 65.6573°W
Report Text: TJNR 251153Z AUTO 00000KT 10SM SCT026 24/22 A3006 RMK AO2 SLP178 60001 70013 T02440217 10244 20211 51016 $
Loading
Personal Weather Stations






























Interactive Weather Map New forecast layout! Learn more

10-Day Weather Forecast

Advertisements
Track Severe Weather on mobile